createdAt,value
2022-09-24T00:01:43.250Z,8.17
2022-09-24T00:05:09.237Z,6.87
2022-09-24T00:08:09.265Z,7.60
2022-09-24T00:11:33.280Z,7.30
2022-09-24T00:14:33.265Z,6.47
2022-09-24T00:17:45.314Z,6.80
2022-09-24T00:20:59.258Z,8.57
2022-09-24T00:24:24.273Z,6.90
2022-09-24T00:27:11.748Z,6.60
2022-09-24T00:30:25.339Z,7.80
2022-09-24T00:33:25.327Z,9.50
2022-09-24T00:36:52.369Z,8.00
2022-09-24T00:40:04.402Z,7.60
2022-09-24T00:43:31.373Z,9.25
2022-09-24T00:46:43.463Z,8.27
2022-09-24T00:50:07.367Z,12.20
2022-09-24T00:53:21.402Z,8.17
2022-09-24T00:56:45.399Z,11.85
2022-09-24T00:59:57.400Z,8.95
2022-09-24T01:03:21.449Z,12.13
2022-09-24T01:06:33.387Z,10.50
2022-09-24T01:10:00.457Z,9.13
2022-09-24T01:13:12.424Z,10.95
2022-09-24T01:16:37.546Z,9.80
2022-09-24T01:20:00.502Z,10.55
2022-09-24T01:23:29.447Z,9.30
2022-09-24T01:26:50.512Z,9.17
2022-09-24T01:30:24.464Z,9.13
2022-09-24T01:33:36.526Z,9.80
2022-09-24T01:37:01.556Z,10.60
2022-09-24T01:40:13.542Z,10.53
2022-09-24T01:43:37.569Z,8.27
2022-09-24T01:46:51.640Z,10.10
2022-09-24T01:50:16.511Z,10.57
2022-09-24T01:53:28.764Z,13.57
2022-09-24T01:56:52.597Z,10.90
2022-09-24T02:00:07.576Z,10.50
2022-09-24T02:03:34.609Z,14.00
2022-09-24T02:06:58.688Z,11.00
2022-09-24T02:09:58.589Z,9.90
2022-09-24T02:13:23.630Z,10.10
2022-09-24T02:16:35.700Z,10.07
2022-09-24T02:20:02.646Z,9.70
2022-09-24T02:23:14.699Z,12.17
2022-09-24T02:26:39.716Z,10.70
2022-09-24T02:29:39.669Z,11.65
2022-09-24T02:33:04.693Z,10.25
2022-09-24T02:36:04.909Z,13.25
2022-09-24T02:39:30.729Z,10.93
2022-09-24T02:42:43.700Z,9.50
2022-09-24T02:45:56.757Z,11.67
2022-09-24T02:48:56.750Z,10.57
2022-09-24T02:52:21.756Z,9.15
2022-09-24T02:55:21.761Z,13.40
2022-09-24T02:58:34.766Z,12.40
2022-09-24T03:01:46.911Z,16.00
2022-09-24T03:05:14.835Z,11.10
2022-09-24T03:08:28.768Z,11.37
2022-09-24T03:11:52.854Z,10.65
2022-09-24T03:14:52.845Z,11.15
2022-09-24T03:18:04.856Z,11.97
2022-09-24T03:21:21.824Z,12.80
2022-09-24T03:24:47.889Z,10.73
2022-09-24T03:27:47.854Z,12.37
2022-09-24T03:31:12.998Z,11.90
2022-09-24T03:34:12.879Z,13.20
2022-09-24T03:37:24.890Z,12.33
2022-09-24T03:40:38.939Z,12.00
2022-09-24T03:44:02.891Z,10.90
2022-09-24T03:47:02.927Z,11.13
2022-09-24T03:50:15.929Z,11.47
2022-09-24T03:53:18.914Z,14.27
2022-09-24T03:56:44.960Z,11.35
2022-09-24T03:59:56.967Z,12.45
2022-09-24T04:03:08.977Z,12.20
2022-09-24T04:06:08.973Z,13.37
2022-09-24T04:09:21.965Z,11.33
2022-09-24T04:12:35.992Z,11.63
2022-09-24T04:15:48.093Z,11.73
2022-09-24T04:18:48.005Z,11.83
2022-09-24T04:22:01.113Z,11.35
2022-09-24T04:25:01.054Z,11.93
2022-09-24T04:28:30.082Z,10.30
2022-09-24T04:31:30.124Z,12.27
2022-09-24T04:34:42.045Z,10.87
2022-09-24T04:37:42.169Z,10.37
2022-09-24T04:41:09.066Z,10.43
2022-09-24T04:44:23.076Z,10.90
2022-09-24T04:47:36.093Z,11.00
2022-09-24T04:50:51.148Z,10.00
2022-09-24T04:54:03.126Z,10.35
2022-09-24T04:57:03.156Z,11.60
2022-09-24T05:00:30.140Z,12.80
2022-09-24T05:03:42.170Z,9.87
2022-09-24T05:07:06.208Z,13.33
2022-09-24T05:10:06.173Z,11.17
2022-09-24T05:13:19.161Z,9.60
2022-09-24T05:16:33.233Z,10.33
2022-09-24T05:19:45.180Z,11.27
2022-09-24T05:22:45.257Z,10.40
2022-09-24T05:26:03.084Z,10.57
2022-09-24T05:29:06.205Z,9.97
2022-09-24T05:32:32.345Z,10.47
2022-09-24T05:35:32.304Z,10.93
2022-09-24T05:38:56.228Z,10.80
2022-09-24T05:41:59.278Z,9.87
2022-09-24T05:45:11.362Z,11.50
2022-09-24T05:48:25.327Z,9.83
2022-09-24T05:51:37.390Z,11.07
2022-09-24T05:54:49.338Z,11.13
2022-09-24T05:58:04.376Z,10.17
2022-09-24T06:01:04.340Z,11.27
2022-09-24T06:04:30.398Z,10.60
2022-09-24T06:07:30.346Z,10.53
2022-09-24T06:10:55.339Z,11.73
2022-09-24T06:14:07.445Z,11.95
2022-09-24T06:17:20.395Z,10.87
2022-09-24T06:20:34.390Z,10.93
2022-09-24T06:23:58.443Z,9.75
2022-09-24T06:26:58.440Z,10.20
2022-09-24T06:30:11.422Z,10.77
2022-09-24T06:33:26.522Z,9.93
2022-09-24T06:36:53.471Z,10.85
2022-09-24T06:39:57.487Z,10.50
2022-09-24T06:43:14.509Z,11.75
2022-09-24T06:46:16.681Z,12.47
2022-09-24T06:49:33.857Z,11.13
2022-09-24T06:52:43.480Z,12.47
2022-09-24T06:55:55.580Z,10.15
2022-09-24T06:58:55.564Z,9.77
2022-09-24T07:02:09.619Z,11.20
2022-09-24T07:05:21.572Z,12.03
2022-09-24T07:08:47.606Z,11.13
2022-09-24T07:11:47.542Z,11.37
2022-09-24T07:15:03.749Z,11.00
2022-09-24T07:18:19.614Z,11.53
2022-09-24T07:21:32.618Z,11.50
2022-09-24T07:24:46.619Z,11.73
2022-09-24T07:27:58.633Z,13.10
2022-09-24T07:30:58.717Z,12.57
2022-09-24T07:34:15.686Z,14.80
2022-09-24T07:37:15.630Z,12.13
2022-09-24T07:40:42.800Z,12.77
2022-09-24T07:43:54.692Z,14.10
2022-09-24T07:47:19.727Z,12.87
2022-09-24T07:50:34.683Z,12.67
2022-09-24T07:53:47.749Z,13.57
2022-09-24T07:57:01.800Z,12.63
2022-09-24T08:00:15.779Z,13.15
2022-09-24T08:03:28.783Z,14.50
2022-09-24T08:06:32.378Z,11.43
2022-09-24T08:09:42.779Z,23.33
2022-09-24T08:12:56.811Z,13.23
2022-09-24T08:16:21.837Z,14.30
2022-09-24T08:19:34.754Z,14.10
2022-09-24T08:22:47.776Z,13.60
2022-09-24T08:25:48.858Z,13.83
2022-09-24T08:29:15.841Z,14.43
2022-09-24T08:32:27.886Z,13.63
2022-09-24T08:35:40.883Z,12.73
2022-09-24T08:38:41.864Z,14.73
2022-09-24T08:42:11.876Z,13.93
2022-09-24T08:45:31.839Z,15.23
2022-09-24T08:48:56.907Z,13.20
2022-09-24T08:52:08.898Z,13.07
2022-09-24T08:55:34.916Z,15.90
2022-09-24T08:58:50.924Z,15.65
2022-09-24T09:02:17.145Z,13.60
2022-09-24T09:05:28.934Z,14.13
2022-09-24T09:09:06.902Z,11.97
2022-09-24T09:12:08.035Z,12.83
2022-09-24T09:15:36.191Z,12.05
2022-09-24T09:18:50.973Z,11.47
2022-09-24T09:22:16.023Z,12.50
2022-09-24T09:25:29.004Z,14.00
2022-09-24T09:28:53.995Z,10.83
2022-09-24T09:32:06.229Z,10.77
2022-09-24T09:35:37.047Z,11.00
2022-09-24T09:38:49.064Z,11.00
2022-09-24T09:42:13.058Z,11.20
2022-09-24T09:45:27.872Z,10.67
2022-09-24T09:48:49.112Z,11.40
2022-09-24T09:52:03.064Z,10.60
2022-09-24T09:55:17.061Z,10.13
2022-09-24T09:58:17.126Z,8.90
2022-09-24T10:01:42.227Z,9.47
2022-09-24T10:05:09.135Z,9.53
2022-09-24T10:08:23.238Z,9.23
2022-09-24T10:11:36.164Z,10.67
2022-09-24T10:14:37.124Z,8.53
2022-09-24T10:18:02.151Z,7.40
2022-09-24T10:21:14.210Z,8.65
2022-09-24T10:24:41.182Z,9.30
2022-09-24T10:27:55.217Z,7.33
2022-09-24T10:31:06.489Z,6.63
2022-09-24T10:34:22.225Z,6.60
2022-09-24T10:37:36.242Z,5.80
2022-09-24T10:40:50.308Z,5.90
2022-09-24T10:44:17.225Z,6.65
2022-09-24T10:47:32.273Z,5.90
2022-09-24T10:50:57.240Z,5.37
2022-09-24T10:54:10.344Z,6.43
2022-09-24T10:57:38.297Z,5.07
2022-09-24T11:00:53.318Z,5.20
2022-09-24T11:04:40.302Z,5.20
2022-09-24T11:07:57.331Z,8.70
2022-09-24T11:11:30.334Z,4.73
2022-09-24T11:14:46.362Z,5.37
2022-09-24T11:18:13.326Z,5.03
2022-09-24T11:21:26.379Z,3.70
2022-09-24T11:25:00.570Z,4.15
2022-09-24T11:28:21.391Z,5.17
2022-09-24T11:31:47.412Z,2.07
2022-09-24T11:35:02.415Z,3.37
2022-09-24T11:38:31.368Z,3.77
2022-09-24T11:41:45.422Z,4.60
2022-09-24T11:45:26.380Z,5.20
2022-09-24T11:48:43.470Z,3.13
2022-09-24T11:52:13.477Z,3.43
2022-09-24T11:55:26.481Z,6.17
2022-09-24T11:58:51.486Z,4.60
2022-09-24T12:02:03.626Z,2.25
2022-09-24T12:05:33.511Z,6.25
2022-09-24T12:08:45.496Z,3.07
2022-09-24T12:12:10.528Z,4.90
2022-09-24T12:15:25.603Z,3.13
2022-09-24T12:18:49.547Z,2.30
2022-09-24T12:22:03.583Z,4.40
2022-09-24T12:25:15.605Z,4.13
2022-09-24T12:28:15.641Z,2.43
2022-09-24T12:31:46.517Z,3.10
2022-09-24T12:34:59.565Z,2.55
2022-09-24T12:38:26.585Z,6.65
2022-09-24T12:41:52.632Z,2.80
2022-09-24T12:45:17.654Z,3.13
2022-09-24T12:48:18.647Z,2.70
2022-09-24T12:51:43.639Z,3.70
2022-09-24T12:54:57.674Z,3.13
2022-09-24T12:58:21.677Z,1.30
2022-09-24T13:01:36.806Z,1.77
2022-09-24T13:04:48.714Z,0.93
2022-09-24T13:08:00.670Z,2.23
2022-09-24T13:11:27.686Z,2.07
2022-09-24T13:14:43.707Z,4.87
2022-09-24T13:18:07.723Z,2.90
2022-09-24T13:21:23.744Z,2.47
2022-09-24T13:24:51.756Z,2.77
2022-09-24T13:28:06.722Z,5.43
2022-09-24T13:31:35.822Z,3.10
2022-09-24T13:34:51.757Z,2.13
2022-09-24T13:38:17.786Z,3.47
2022-09-24T13:41:30.774Z,1.97
2022-09-24T13:44:57.799Z,3.70
2022-09-24T13:48:09.805Z,1.25
2022-09-24T13:51:35.791Z,3.03
2022-09-24T13:54:50.814Z,1.27
2022-09-24T13:58:03.830Z,2.93
2022-09-24T14:01:17.924Z,2.50
2022-09-24T14:04:42.876Z,2.45
2022-09-24T14:07:54.846Z,2.77
2022-09-24T14:11:28.896Z,4.23
2022-09-24T14:14:40.913Z,1.60
2022-09-24T14:18:12.672Z,1.80
2022-09-24T14:21:20.867Z,1.43
2022-09-24T14:24:45.982Z,2.23
2022-09-24T14:27:57.920Z,2.93
2022-09-24T14:31:23.022Z,1.30
2022-09-24T14:34:39.946Z,1.97
2022-09-24T14:38:04.962Z,3.50
2022-09-24T14:41:16.917Z,1.27
2022-09-24T14:44:42.969Z,3.03
2022-09-24T14:47:58.017Z,3.43
2022-09-24T14:51:24.014Z,1.53
2022-09-24T14:54:44.321Z,1.67
2022-09-24T14:58:08.019Z,2.30
2022-09-24T15:01:20.075Z,1.30
2022-09-24T15:04:44.059Z,3.03
2022-09-24T15:07:57.047Z,3.97
2022-09-24T15:11:22.079Z,1.17
2022-09-24T15:14:38.105Z,2.93
2022-09-24T15:17:52.074Z,1.87
2022-09-24T15:20:52.150Z,1.97
2022-09-24T15:24:19.095Z,5.50
2022-09-24T15:27:31.093Z,3.77
2022-09-24T15:30:48.243Z,3.27
2022-09-24T15:33:51.167Z,2.90
2022-09-24T15:37:17.118Z,2.85
2022-09-24T15:40:31.196Z,3.13
2022-09-24T15:43:43.299Z,2.30
2022-09-24T15:46:43.219Z,2.85
2022-09-24T15:49:55.185Z,2.30
2022-09-24T15:53:11.185Z,3.30
2022-09-24T15:56:42.203Z,2.77
2022-09-24T15:59:38.209Z,2.85
2022-09-24T16:03:08.320Z,2.20
2022-09-24T16:06:34.217Z,3.60
2022-09-24T16:09:34.241Z,1.93
2022-09-24T16:13:01.260Z,3.83
2022-09-24T16:16:13.335Z,4.80
2022-09-24T16:19:26.264Z,4.77
2022-09-24T16:22:26.254Z,3.80
2022-09-24T16:25:42.420Z,3.97
2022-09-24T16:28:56.261Z,4.10
2022-09-24T16:32:09.328Z,6.00
2022-09-24T16:35:09.323Z,7.33
2022-09-24T16:38:23.065Z,3.90
2022-09-24T16:41:21.422Z,6.13
2022-09-24T16:44:48.299Z,2.50
2022-09-24T16:47:48.350Z,2.87
2022-09-24T16:51:04.377Z,2.83
2022-09-24T16:54:19.484Z,5.63
2022-09-24T16:57:32.384Z,3.87
2022-09-24T17:00:46.452Z,1.60
2022-09-24T17:07:18.453Z,5.27
2022-09-24T17:10:31.386Z,6.67
2022-09-24T17:13:32.416Z,3.40
2022-09-24T17:16:59.385Z,2.75
2022-09-24T17:19:59.479Z,3.13
2022-09-24T17:23:12.465Z,4.65
2022-09-24T17:26:27.516Z,2.83
2022-09-24T17:29:40.514Z,3.60
2022-09-24T17:32:57.514Z,4.60
2022-09-24T17:36:22.469Z,4.27
2022-09-24T17:39:36.504Z,4.97
2022-09-24T17:42:49.537Z,5.60
2022-09-24T17:45:49.626Z,2.50
2022-09-24T17:49:16.627Z,3.90
2022-09-24T17:52:19.578Z,3.03
2022-09-24T17:55:36.578Z,4.25
2022-09-24T17:58:48.602Z,3.63
2022-09-24T18:02:04.657Z,2.00
2022-09-24T18:05:31.601Z,4.15
2022-09-24T18:08:32.613Z,1.10
2022-09-24T18:11:57.590Z,2.13
2022-09-24T18:14:58.619Z,3.37
2022-09-24T18:18:11.683Z,1.63
2022-09-24T18:21:25.635Z,3.03
2022-09-24T18:24:38.656Z,1.20
2022-09-24T18:27:38.668Z,2.20
2022-09-24T18:30:50.699Z,2.77
2022-09-24T18:34:02.678Z,2.63
2022-09-24T18:37:29.639Z,2.93
2022-09-24T18:40:29.707Z,2.50
2022-09-24T18:43:41.742Z,2.45
2022-09-24T18:46:53.723Z,6.20
2022-09-24T18:50:06.705Z,4.00
2022-09-24T18:53:19.684Z,3.87
2022-09-24T18:56:31.751Z,2.10
2022-09-24T18:59:46.688Z,1.93
2022-09-24T19:02:58.929Z,1.75
2022-09-24T19:06:10.758Z,4.60
2022-09-24T19:09:37.731Z,3.00
2022-09-24T19:12:37.786Z,1.47
2022-09-24T19:16:05.855Z,3.50
2022-09-24T19:19:20.751Z,3.73
2022-09-24T19:22:33.799Z,1.83
2022-09-24T19:25:47.792Z,5.70
2022-09-24T19:29:11.888Z,2.20
2022-09-24T19:32:12.827Z,2.50
2022-09-24T19:35:25.841Z,2.30
2022-09-24T19:38:27.825Z,1.77
2022-09-24T19:41:54.851Z,1.60
2022-09-24T19:44:57.860Z,0.90
2022-09-24T19:48:11.944Z,1.57
2022-09-24T19:51:23.892Z,3.10
2022-09-24T19:54:36.900Z,2.87
2022-09-24T19:57:50.896Z,1.37
2022-09-24T20:01:03.012Z,1.63
2022-09-24T20:04:26.922Z,2.30
2022-09-24T20:07:31.124Z,2.90
2022-09-24T20:10:43.922Z,3.40
2022-09-24T20:13:59.959Z,2.17
2022-09-24T20:17:11.970Z,3.77
2022-09-24T20:20:14.988Z,2.47
2022-09-24T20:23:26.961Z,1.93
2022-09-24T20:26:44.760Z,1.60
2022-09-24T20:30:11.009Z,1.67
2022-09-24T20:33:11.010Z,1.27
2022-09-24T20:36:35.036Z,2.87
2022-09-24T20:39:47.014Z,2.43
2022-09-24T20:42:59.124Z,2.25
2022-09-24T20:46:16.157Z,1.95
2022-09-24T20:49:41.049Z,2.95
2022-09-24T20:52:57.128Z,1.20
2022-09-24T20:56:09.092Z,1.10
2022-09-24T20:59:09.112Z,2.30
2022-09-24T21:02:40.586Z,1.90
2022-09-24T21:05:35.135Z,4.00
2022-09-24T21:09:02.130Z,1.87
2022-09-24T21:12:03.106Z,2.00
2022-09-24T21:15:28.166Z,1.47
2022-09-24T21:18:42.140Z,2.37
2022-09-24T21:21:57.161Z,1.55
2022-09-24T21:24:57.171Z,1.50
2022-09-24T21:28:10.162Z,1.27
2022-09-24T21:31:22.207Z,1.40
2022-09-24T21:34:47.274Z,1.75
2022-09-24T21:37:59.213Z,2.40
2022-09-24T21:41:11.220Z,1.10
2022-09-24T21:44:23.203Z,3.43
2022-09-24T21:47:35.282Z,1.95
2022-09-24T21:50:49.351Z,3.40
2022-09-24T21:54:13.359Z,2.15
2022-09-24T21:57:14.260Z,1.57
2022-09-24T22:00:29.356Z,2.53
2022-09-24T22:03:53.261Z,1.57
2022-09-24T22:07:07.277Z,2.97
2022-09-24T22:10:23.273Z,1.27
2022-09-24T22:13:27.324Z,1.90
2022-09-24T22:16:52.406Z,1.57
2022-09-24T22:19:52.351Z,3.17
2022-09-24T22:23:18.453Z,2.40
2022-09-24T22:26:30.344Z,1.10
2022-09-24T22:29:55.406Z,2.10
2022-09-24T22:33:07.424Z,1.77
2022-09-24T22:36:06.832Z,2.13
2022-09-24T22:39:21.369Z,2.53
2022-09-24T22:42:33.378Z,2.00
2022-09-24T22:45:33.402Z,4.60
2022-09-24T22:48:57.427Z,2.57
2022-09-24T22:52:09.429Z,2.73
2022-09-24T22:55:38.481Z,1.30
2022-09-24T22:58:38.487Z,1.83
2022-09-24T23:02:03.433Z,2.50
2022-09-24T23:05:03.648Z,3.10
2022-09-24T23:08:21.464Z,1.13
2022-09-24T23:11:34.500Z,4.55
2022-09-24T23:14:46.615Z,3.90
2022-09-24T23:18:00.481Z,4.30
2022-09-24T23:21:25.505Z,1.73
2022-09-24T23:24:40.593Z,1.67
2022-09-24T23:28:06.527Z,1.20
2022-09-24T23:31:21.561Z,3.07
2022-09-24T23:34:36.566Z,4.43
2022-09-24T23:37:36.609Z,1.77
2022-09-24T23:40:48.660Z,2.20
2022-09-24T23:44:05.652Z,2.10
2022-09-24T23:47:17.623Z,3.45
2022-09-24T23:50:21.601Z,2.35
2022-09-24T23:53:34.825Z,2.00
2022-09-24T23:56:34.652Z,1.70
